createdAt,value
2018-02-27T00:02:14.065Z,1.30
2018-02-27T00:04:40.259Z,1.67
2018-02-27T00:07:06.473Z,1.30
2018-02-27T00:09:32.664Z,1.10
2018-02-27T00:11:58.868Z,1.17
2018-02-27T00:14:25.096Z,1.30
2018-02-27T00:16:51.676Z,0.93
2018-02-27T00:19:17.901Z,1.20
2018-02-27T00:21:44.115Z,1.33
2018-02-27T00:24:10.336Z,1.10
2018-02-27T00:26:36.543Z,1.17
2018-02-27T00:29:02.766Z,1.10
2018-02-27T00:31:32.860Z,1.40
2018-02-27T00:33:59.045Z,1.43
2018-02-27T00:36:25.226Z,1.00
2018-02-27T00:38:51.434Z,1.00
2018-02-27T00:41:17.612Z,0.90
2018-02-27T00:43:43.805Z,1.60
2018-02-27T00:46:09.983Z,1.60
2018-02-27T00:48:36.211Z,1.70
2018-02-27T00:51:02.414Z,1.10
2018-02-27T00:53:28.567Z,1.20
2018-02-27T00:55:54.804Z,1.10
2018-02-27T00:58:20.976Z,1.20
2018-02-27T01:00:47.153Z,1.07
2018-02-27T01:03:13.408Z,1.37
2018-02-27T01:05:39.572Z,1.20
2018-02-27T01:08:05.925Z,1.10
2018-02-27T01:10:32.166Z,0.90
2018-02-27T01:12:58.348Z,1.10
2018-02-27T01:15:24.531Z,1.23
2018-02-27T01:17:50.778Z,1.40
2018-02-27T01:20:17.205Z,1.20
2018-02-27T01:22:43.625Z,1.10
2018-02-27T01:25:09.836Z,1.20
2018-02-27T01:27:36.008Z,0.90
2018-02-27T01:30:02.255Z,1.30
2018-02-27T01:32:28.660Z,1.20
2018-02-27T01:34:54.822Z,1.00
2018-02-27T01:37:21.256Z,1.10
2018-02-27T01:39:47.428Z,1.07
2018-02-27T01:42:13.819Z,1.17
2018-02-27T01:44:40.006Z,1.10
2018-02-27T01:47:06.219Z,1.13
2018-02-27T01:49:32.423Z,1.10
2018-02-27T01:51:58.584Z,1.00
2018-02-27T01:54:25.098Z,1.00
2018-02-27T01:56:51.504Z,1.08
2018-02-27T01:59:17.714Z,1.00
2018-02-27T02:01:43.934Z,1.10
2018-02-27T02:04:10.091Z,1.00
2018-02-27T02:06:36.311Z,1.23
2018-02-27T02:09:02.790Z,0.90
2018-02-27T02:11:29.036Z,1.10
2018-02-27T02:13:55.233Z,0.80
2018-02-27T02:16:21.435Z,1.13
2018-02-27T02:18:47.996Z,0.90
2018-02-27T02:21:14.168Z,1.10
2018-02-27T02:23:40.328Z,1.10
2018-02-27T02:26:06.583Z,1.20
2018-02-27T02:28:32.770Z,1.00
2018-02-27T02:30:58.971Z,0.90
2018-02-27T02:33:25.173Z,1.07
2018-02-27T02:35:51.699Z,1.03
2018-02-27T02:38:17.946Z,0.90
2018-02-27T02:40:44.127Z,0.93
2018-02-27T02:43:10.375Z,1.03
2018-02-27T02:45:36.552Z,1.00
2018-02-27T02:48:02.725Z,1.00
2018-02-27T02:50:29.267Z,1.40
2018-02-27T02:52:55.467Z,0.93
2018-02-27T02:55:21.686Z,1.00
2018-02-27T02:57:47.872Z,1.10
2018-02-27T03:00:14.405Z,0.90
2018-02-27T03:02:40.719Z,1.23
2018-02-27T03:05:06.910Z,1.10
2018-02-27T03:07:33.135Z,1.00
2018-02-27T03:09:59.303Z,1.03
2018-02-27T03:12:27.447Z,0.90
2018-02-27T03:14:53.686Z,0.90
2018-02-27T03:17:19.872Z,0.90
2018-02-27T03:19:46.266Z,1.10
2018-02-27T03:22:12.451Z,0.90
2018-02-27T03:24:38.877Z,1.00
2018-02-27T03:27:05.197Z,0.87
2018-02-27T03:29:31.368Z,1.00
2018-02-27T03:31:57.585Z,1.37
2018-02-27T03:34:23.774Z,0.90
2018-02-27T03:36:49.939Z,0.90
2018-02-27T03:39:16.136Z,1.10
2018-02-27T03:41:42.368Z,1.00
2018-02-27T03:44:08.768Z,1.10
2018-02-27T03:46:34.936Z,0.90
2018-02-27T03:49:01.120Z,1.30
2018-02-27T03:51:27.286Z,1.27
2018-02-27T03:53:53.531Z,0.80
2018-02-27T03:56:19.706Z,1.00
2018-02-27T03:58:45.886Z,1.10
2018-02-27T04:01:12.081Z,0.90
2018-02-27T04:03:38.313Z,0.80
2018-02-27T04:06:04.493Z,0.93
2018-02-27T04:08:30.665Z,1.10
2018-02-27T04:10:56.867Z,0.80
2018-02-27T04:13:23.075Z,0.93
2018-02-27T04:15:49.302Z,0.90
2018-02-27T04:18:15.479Z,1.07
2018-02-27T04:20:41.644Z,0.90
2018-02-27T04:23:07.929Z,0.90
2018-02-27T04:25:34.161Z,1.00
2018-02-27T04:28:00.380Z,0.90
2018-02-27T04:30:26.568Z,1.10
2018-02-27T04:32:52.749Z,0.90
2018-02-27T04:35:18.992Z,0.80
2018-02-27T04:37:45.170Z,0.90
2018-02-27T04:40:11.334Z,1.00
2018-02-27T04:42:37.548Z,0.90
2018-02-27T04:45:03.753Z,1.10
2018-02-27T04:47:29.975Z,0.90
2018-02-27T04:49:56.147Z,0.90
2018-02-27T04:52:22.355Z,0.90
2018-02-27T04:54:48.516Z,0.87
2018-02-27T04:57:14.731Z,0.80
2018-02-27T04:59:40.914Z,1.00
2018-02-27T05:02:07.102Z,0.80
2018-02-27T05:04:33.296Z,0.93
2018-02-27T05:06:59.484Z,0.83
2018-02-27T05:09:25.994Z,0.90
2018-02-27T05:11:52.197Z,0.90
2018-02-27T05:14:18.394Z,0.90
2018-02-27T05:16:44.604Z,0.90
2018-02-27T05:19:10.792Z,1.00
2018-02-27T05:21:37.015Z,0.90
2018-02-27T05:24:03.214Z,1.20
2018-02-27T05:26:29.659Z,0.80
2018-02-27T05:28:56.251Z,0.90
2018-02-27T05:31:22.559Z,1.00
2018-02-27T05:33:49.016Z,0.87
2018-02-27T05:36:15.191Z,1.00
2018-02-27T05:38:41.368Z,0.90
2018-02-27T05:41:07.529Z,0.90
2018-02-27T05:43:33.742Z,0.97
2018-02-27T05:45:59.920Z,1.10
2018-02-27T05:48:26.138Z,1.00
2018-02-27T05:50:52.324Z,0.97
2018-02-27T05:53:18.503Z,1.00
2018-02-27T05:55:44.700Z,1.00
2018-02-27T05:58:10.890Z,0.90
2018-02-27T06:00:37.118Z,0.93
2018-02-27T06:03:03.292Z,1.00
2018-02-27T06:05:29.479Z,0.90
2018-02-27T06:07:55.687Z,1.10
2018-02-27T06:10:22.178Z,0.90
2018-02-27T06:12:48.619Z,0.90
2018-02-27T06:15:14.791Z,1.00
2018-02-27T06:17:41.000Z,0.93
2018-02-27T06:20:07.477Z,2.33
2018-02-27T06:22:33.696Z,1.50
2018-02-27T06:24:59.868Z,1.57
2018-02-27T06:27:26.165Z,2.03
2018-02-27T06:29:52.345Z,1.33
2018-02-27T06:32:18.549Z,1.80
2018-02-27T06:34:44.764Z,1.23
2018-02-27T06:37:10.954Z,1.50
2018-02-27T06:39:37.144Z,1.37
2018-02-27T06:42:03.383Z,1.17
2018-02-27T06:44:29.565Z,1.17
2018-02-27T06:46:55.757Z,1.07
2018-02-27T06:49:21.956Z,1.20
2018-02-27T06:51:48.129Z,1.30
2018-02-27T06:54:14.654Z,1.50
2018-02-27T06:56:40.844Z,1.00
2018-02-27T06:59:07.065Z,1.50
2018-02-27T07:01:33.305Z,1.37
2018-02-27T07:03:59.509Z,1.20
2018-02-27T07:06:25.980Z,1.10
2018-02-27T07:08:52.168Z,1.20
2018-02-27T07:11:18.606Z,2.80
2018-02-27T07:13:44.816Z,1.40
2018-02-27T07:16:10.994Z,1.23
2018-02-27T07:18:37.207Z,1.10
2018-02-27T07:21:03.405Z,1.20
2018-02-27T07:23:29.630Z,1.50
2018-02-27T07:25:55.833Z,1.10
2018-02-27T07:28:22.128Z,1.40
2018-02-27T07:30:48.419Z,1.70
2018-02-27T07:33:14.660Z,1.57
2018-02-27T07:35:40.850Z,2.20
2018-02-27T07:38:07.029Z,2.37
2018-02-27T07:40:33.244Z,1.10
2018-02-27T07:42:59.449Z,1.40
2018-02-27T07:45:25.654Z,1.43
2018-02-27T07:47:51.937Z,1.20
2018-02-27T07:50:18.131Z,1.40
2018-02-27T07:52:44.528Z,1.73
2018-02-27T07:55:10.729Z,1.43
2018-02-27T07:57:36.903Z,1.33
2018-02-27T08:00:03.148Z,1.27
2018-02-27T08:02:29.322Z,1.23
2018-02-27T08:04:55.627Z,1.10
2018-02-27T08:07:22.095Z,1.33
2018-02-27T08:09:48.278Z,2.20
2018-02-27T08:12:14.466Z,1.50
2018-02-27T08:14:40.648Z,1.50
2018-02-27T08:17:06.880Z,1.50
2018-02-27T08:19:33.297Z,1.10
2018-02-27T08:21:59.492Z,1.63
2018-02-27T08:24:26.022Z,1.30
2018-02-27T08:26:52.182Z,1.60
2018-02-27T08:29:18.426Z,1.20
2018-02-27T08:31:44.904Z,1.20
2018-02-27T08:34:11.435Z,1.20
2018-02-27T08:36:37.745Z,2.00
2018-02-27T08:39:04.010Z,1.27
2018-02-27T08:41:30.183Z,1.30
2018-02-27T08:43:56.426Z,1.30
2018-02-27T08:46:22.586Z,1.87
2018-02-27T08:48:48.785Z,1.60
2018-02-27T08:51:15.252Z,1.37
2018-02-27T08:53:41.447Z,1.10
2018-02-27T08:56:07.719Z,1.53
2018-02-27T08:58:33.896Z,1.30
2018-02-27T09:01:00.091Z,1.87
2018-02-27T09:03:26.579Z,1.20
2018-02-27T09:05:52.780Z,1.43
2018-02-27T09:08:18.973Z,1.33
2018-02-27T09:10:45.248Z,1.17
2018-02-27T09:13:11.421Z,1.40
2018-02-27T09:15:37.608Z,1.00
2018-02-27T09:18:03.829Z,1.00
2018-02-27T09:20:30.042Z,1.27
2018-02-27T09:22:56.265Z,0.80
2018-02-27T09:25:22.424Z,0.97
2018-02-27T09:27:48.609Z,1.30
2018-02-27T09:30:14.891Z,1.23
2018-02-27T09:32:41.076Z,1.23
2018-02-27T09:35:07.250Z,1.10
2018-02-27T09:37:33.516Z,1.20
2018-02-27T09:39:59.712Z,1.00
2018-02-27T09:42:25.888Z,1.40
2018-02-27T09:44:52.052Z,1.03
2018-02-27T09:47:18.266Z,1.33
2018-02-27T09:49:44.691Z,1.33
2018-02-27T09:52:10.942Z,1.10
2018-02-27T09:54:37.224Z,1.07
2018-02-27T09:57:03.424Z,1.20
2018-02-27T09:59:29.721Z,1.10
2018-02-27T10:01:55.876Z,1.33
2018-02-27T10:04:22.062Z,1.17
2018-02-27T10:06:48.525Z,1.40
2018-02-27T10:09:14.711Z,1.30
2018-02-27T10:11:40.892Z,1.20
2018-02-27T10:14:07.112Z,1.03
2018-02-27T10:16:33.342Z,1.20
2018-02-27T10:18:59.510Z,1.00
2018-02-27T10:21:25.820Z,1.20
2018-02-27T10:23:52.252Z,1.07
2018-02-27T10:26:18.431Z,1.10
2018-02-27T10:28:44.654Z,1.40
2018-02-27T10:31:10.849Z,0.80
2018-02-27T10:33:37.273Z,1.00
2018-02-27T10:36:03.510Z,1.00
2018-02-27T10:38:29.774Z,1.00
2018-02-27T10:40:56.066Z,1.10
2018-02-27T10:43:22.243Z,1.20
2018-02-27T10:45:48.528Z,1.00
2018-02-27T10:48:15.003Z,1.13
2018-02-27T10:50:41.173Z,1.07
2018-02-27T10:53:07.395Z,1.10
2018-02-27T10:55:33.592Z,1.23
2018-02-27T10:57:59.759Z,1.30
2018-02-27T11:03:27.263Z,1.10
2018-02-27T11:05:53.464Z,1.10
2018-02-27T11:08:19.640Z,1.10
2018-02-27T11:10:45.846Z,1.13
2018-02-27T11:13:12.027Z,0.90
2018-02-27T11:15:38.337Z,1.17
2018-02-27T11:18:04.536Z,1.30
2018-02-27T11:20:30.764Z,0.97
2018-02-27T11:22:57.076Z,1.43
2018-02-27T11:25:23.550Z,1.27
2018-02-27T11:27:50.501Z,1.23
2018-02-27T11:30:17.167Z,1.43
2018-02-27T11:32:43.347Z,1.30
2018-02-27T11:35:09.788Z,1.30
2018-02-27T11:37:35.969Z,1.10
2018-02-27T11:40:02.714Z,1.00
2018-02-27T11:42:29.150Z,1.00
2018-02-27T11:44:55.376Z,1.57
2018-02-27T11:47:21.596Z,1.43
2018-02-27T11:49:47.813Z,1.47
2018-02-27T11:52:13.980Z,1.70
2018-02-27T11:54:40.147Z,1.70
2018-02-27T11:57:06.379Z,1.60
2018-02-27T11:59:32.538Z,1.97
2018-02-27T12:01:58.765Z,1.60
2018-02-27T12:04:24.933Z,2.47
2018-02-27T12:06:51.095Z,2.10
2018-02-27T12:09:17.296Z,2.77
2018-02-27T12:11:43.531Z,2.30
2018-02-27T12:14:09.751Z,1.80
2018-02-27T12:16:36.162Z,1.80
2018-02-27T12:19:02.447Z,1.70
2018-02-27T12:21:28.862Z,2.50
2018-02-27T12:23:55.076Z,1.67
2018-02-27T12:26:21.231Z,2.10
2018-02-27T12:28:47.383Z,2.00
2018-02-27T12:31:13.698Z,1.80
2018-02-27T12:33:39.886Z,1.90
2018-02-27T12:36:06.058Z,1.70
2018-02-27T12:38:32.258Z,2.07
2018-02-27T12:40:58.467Z,1.70
2018-02-27T12:43:24.676Z,2.10
2018-02-27T12:45:50.854Z,1.83
2018-02-27T12:48:17.075Z,2.60
2018-02-27T12:50:43.239Z,1.57
2018-02-27T12:53:09.483Z,1.90
2018-02-27T12:55:35.676Z,1.50
2018-02-27T12:58:01.835Z,1.80
2018-02-27T13:00:28.020Z,1.67
2018-02-27T13:02:54.194Z,1.90
2018-02-27T13:05:20.402Z,2.10
2018-02-27T13:07:46.570Z,1.90
2018-02-27T13:10:12.769Z,2.17
2018-02-27T13:12:38.930Z,1.70
2018-02-27T13:15:05.108Z,1.73
2018-02-27T13:17:31.576Z,1.50
2018-02-27T13:19:57.801Z,2.40
2018-02-27T13:22:24.240Z,1.80
2018-02-27T13:24:50.415Z,1.90
2018-02-27T13:27:16.727Z,1.70
2018-02-27T13:29:42.921Z,1.50
2018-02-27T13:32:09.361Z,2.13
2018-02-27T13:34:35.642Z,1.60
2018-02-27T13:37:01.824Z,1.70
2018-02-27T13:39:28.000Z,2.00
2018-02-27T13:41:54.261Z,1.93
2018-02-27T13:44:20.422Z,1.40
2018-02-27T13:46:46.833Z,2.00
2018-02-27T13:49:13.397Z,2.40
2018-02-27T13:51:39.572Z,2.10
2018-02-27T13:54:05.782Z,2.03
2018-02-27T13:56:31.957Z,2.50
2018-02-27T13:58:58.815Z,2.60
2018-02-27T14:01:25.331Z,1.90
2018-02-27T14:03:51.508Z,3.03
2018-02-27T14:06:17.953Z,2.00
2018-02-27T14:08:44.385Z,2.20
2018-02-27T14:11:10.854Z,2.10
2018-02-27T14:13:37.027Z,2.00
2018-02-27T14:16:03.221Z,2.47
2018-02-27T14:18:29.424Z,1.50
2018-02-27T14:20:55.611Z,1.80
2018-02-27T14:23:21.771Z,2.07
2018-02-27T14:25:47.985Z,1.90
2018-02-27T14:28:14.177Z,1.93
2018-02-27T14:30:40.349Z,1.80
2018-02-27T14:33:06.583Z,1.67
2018-02-27T14:35:32.731Z,1.90
2018-02-27T14:37:58.954Z,1.73
2018-02-27T14:40:25.138Z,1.60
2018-02-27T14:42:51.292Z,2.07
2018-02-27T14:45:17.493Z,1.73
2018-02-27T14:47:43.924Z,1.83
2018-02-27T14:50:10.402Z,1.43
2018-02-27T14:52:36.584Z,2.13
2018-02-27T14:55:02.802Z,1.77
2018-02-27T14:57:28.971Z,2.50
2018-02-27T14:59:55.176Z,1.50
2018-02-27T15:02:21.643Z,1.60
2018-02-27T15:04:47.859Z,1.60
2018-02-27T15:07:14.284Z,1.37
2018-02-27T15:09:40.507Z,1.50
2018-02-27T15:12:06.782Z,1.70
2018-02-27T15:14:32.959Z,1.73
2018-02-27T15:16:59.172Z,1.70
2018-02-27T15:19:25.376Z,1.47
2018-02-27T15:21:51.537Z,1.70
2018-02-27T15:24:17.731Z,1.77
2018-02-27T15:26:43.883Z,1.90
2018-02-27T15:29:10.144Z,1.27
2018-02-27T15:31:36.308Z,1.30
2018-02-27T15:34:02.497Z,2.20
2018-02-27T15:36:28.720Z,1.50
2018-02-27T15:38:55.211Z,1.30
2018-02-27T15:41:21.446Z,2.00
2018-02-27T15:43:47.623Z,1.87
2018-02-27T15:46:13.789Z,1.50
2018-02-27T15:48:39.967Z,1.43
2018-02-27T15:51:06.139Z,2.30
2018-02-27T15:53:32.340Z,1.70
2018-02-27T15:55:58.786Z,2.37
2018-02-27T15:58:25.011Z,1.40
2018-02-27T16:00:51.178Z,1.47
2018-02-27T16:03:17.350Z,1.30
2018-02-27T16:05:43.557Z,1.37
2018-02-27T16:08:09.720Z,1.37
2018-02-27T16:10:35.878Z,1.33
2018-02-27T16:13:02.071Z,1.30
2018-02-27T16:15:28.256Z,1.67
2018-02-27T16:17:54.487Z,1.30
2018-02-27T16:20:20.666Z,1.33
2018-02-27T16:22:46.817Z,1.30
2018-02-27T16:25:13.028Z,1.33
2018-02-27T16:27:39.198Z,1.57
2018-02-27T16:30:05.360Z,1.20
2018-02-27T16:32:31.625Z,1.57
2018-02-27T16:34:57.819Z,1.23
2018-02-27T16:37:24.032Z,1.60
2018-02-27T16:39:50.252Z,1.50
2018-02-27T16:42:16.472Z,1.40
2018-02-27T16:44:42.637Z,1.33
2018-02-27T16:47:09.248Z,1.53
2018-02-27T16:49:35.442Z,1.27
2018-02-27T16:52:01.619Z,1.30
2018-02-27T16:54:28.839Z,1.30
2018-02-27T16:56:55.403Z,1.40
2018-02-27T16:59:21.721Z,1.67
2018-02-27T17:01:47.942Z,1.50
2018-02-27T17:04:14.387Z,1.57
2018-02-27T17:06:40.532Z,1.90
2018-02-27T17:09:06.751Z,1.63
2018-02-27T17:11:32.927Z,1.30
2018-02-27T17:13:59.177Z,1.57
2018-02-27T17:16:25.328Z,1.40
2018-02-27T17:18:51.514Z,1.50
2018-02-27T17:21:17.998Z,1.40
2018-02-27T17:23:44.182Z,1.20
2018-02-27T17:26:10.354Z,1.70
2018-02-27T17:28:36.601Z,1.53
2018-02-27T17:31:03.021Z,1.30
2018-02-27T17:33:29.249Z,1.20
2018-02-27T17:35:55.807Z,1.37
2018-02-27T17:38:22.036Z,1.40
2018-02-27T17:40:48.204Z,1.53
2018-02-27T17:43:14.748Z,1.70
2018-02-27T17:45:41.052Z,1.57
2018-02-27T17:48:07.304Z,1.30
2018-02-27T17:50:33.527Z,2.07
2018-02-27T17:52:59.752Z,1.83
2018-02-27T17:55:26.168Z,1.70
2018-02-27T17:57:52.361Z,1.33
2018-02-27T18:00:18.539Z,1.30
2018-02-27T18:02:44.724Z,1.60
2018-02-27T18:05:10.897Z,1.40
2018-02-27T18:07:37.336Z,1.53
2018-02-27T18:10:03.525Z,1.30
2018-02-27T18:12:29.694Z,1.33
2018-02-27T18:14:55.911Z,1.70
2018-02-27T18:17:22.088Z,1.53
2018-02-27T18:19:48.579Z,1.40
2018-02-27T18:22:14.801Z,1.30
2018-02-27T18:24:40.960Z,1.80
2018-02-27T18:27:07.128Z,1.57
2018-02-27T18:29:33.560Z,1.53
2018-02-27T18:32:00.132Z,1.33
2018-02-27T18:34:26.297Z,1.47
2018-02-27T18:36:52.788Z,1.13
2018-02-27T18:39:19.074Z,1.80
2018-02-27T18:41:45.256Z,1.53
2018-02-27T18:44:11.501Z,1.30
2018-02-27T18:46:37.676Z,1.63
2018-02-27T18:49:03.860Z,1.53
2018-02-27T18:51:30.063Z,1.67
2018-02-27T18:53:56.488Z,1.43
2018-02-27T18:56:22.718Z,1.60
2018-02-27T18:58:49.147Z,1.43
2018-02-27T19:01:15.280Z,1.70
2018-02-27T19:03:41.813Z,1.57
2018-02-27T19:06:07.968Z,1.50
2018-02-27T19:08:34.474Z,2.00
2018-02-27T19:11:00.709Z,1.50
2018-02-27T19:13:26.917Z,2.27
2018-02-27T19:15:53.467Z,1.60
2018-02-27T19:18:20.004Z,1.87
2018-02-27T19:20:46.223Z,1.80
2018-02-27T19:23:12.402Z,1.70
2018-02-27T19:25:38.555Z,1.37
2018-02-27T19:28:04.752Z,1.40
2018-02-27T19:30:30.941Z,1.70
2018-02-27T19:32:57.134Z,1.50
2018-02-27T19:35:23.378Z,1.60
2018-02-27T19:37:49.595Z,1.40
2018-02-27T19:40:15.775Z,1.70
2018-02-27T19:42:42.005Z,1.90
2018-02-27T19:45:08.510Z,2.00
2018-02-27T19:47:34.674Z,1.57
2018-02-27T19:50:00.887Z,1.70
2018-02-27T19:52:27.046Z,2.00
2018-02-27T19:54:53.201Z,1.70
2018-02-27T19:57:26.299Z,1.67
2018-02-27T19:59:52.471Z,2.20
2018-02-27T20:02:18.647Z,1.90
2018-02-27T20:04:45.093Z,1.57
2018-02-27T20:07:11.255Z,2.03
2018-02-27T20:09:37.432Z,2.07
2018-02-27T20:12:03.645Z,1.90
2018-02-27T20:14:30.872Z,2.37
2018-02-27T20:16:57.128Z,1.77
2018-02-27T20:19:23.293Z,1.40
2018-02-27T20:21:49.486Z,1.50
2018-02-27T20:24:16.750Z,1.67
2018-02-27T20:26:42.962Z,1.80
2018-02-27T20:29:15.171Z,1.77
2018-02-27T20:31:41.694Z,1.80
2018-02-27T20:34:07.862Z,1.60
2018-02-27T20:36:34.138Z,2.10
2018-02-27T20:39:06.286Z,1.70
2018-02-27T20:41:32.509Z,1.93
2018-02-27T20:43:58.978Z,2.23
2018-02-27T20:46:25.127Z,2.07
2018-02-27T20:48:51.311Z,1.90
2018-02-27T20:51:17.738Z,1.67
2018-02-27T20:53:43.954Z,1.80
2018-02-27T20:56:10.184Z,1.70
2018-02-27T20:58:36.388Z,2.07
2018-02-27T21:01:02.575Z,1.70
2018-02-27T21:03:29.007Z,1.50
2018-02-27T21:05:55.158Z,1.70
2018-02-27T21:08:21.332Z,2.10
2018-02-27T21:10:47.490Z,1.80
2018-02-27T21:13:13.725Z,1.80
2018-02-27T21:15:39.890Z,1.53
2018-02-27T21:18:06.067Z,1.70
2018-02-27T21:20:32.281Z,1.50
2018-02-27T21:22:58.432Z,2.10
2018-02-27T21:25:24.608Z,1.90
2018-02-27T21:27:50.814Z,1.77
2018-02-27T21:30:16.977Z,1.93
2018-02-27T21:32:43.228Z,1.73
2018-02-27T21:35:09.380Z,1.80
2018-02-27T21:37:35.544Z,1.63
2018-02-27T21:40:01.765Z,1.47
2018-02-27T21:42:28.012Z,1.63
2018-02-27T21:44:54.188Z,1.87
2018-02-27T21:47:20.347Z,1.63
2018-02-27T21:49:46.547Z,2.17
2018-02-27T21:52:12.720Z,1.70
2018-02-27T21:54:38.955Z,1.70
2018-02-27T21:57:05.127Z,1.60
2018-02-27T21:59:31.312Z,1.83
2018-02-27T22:01:57.516Z,1.77
2018-02-27T22:04:23.693Z,1.77
2018-02-27T22:06:49.848Z,2.13
2018-02-27T22:09:16.067Z,1.63
2018-02-27T22:11:42.215Z,2.00
2018-02-27T22:14:08.377Z,1.90
2018-02-27T22:16:34.565Z,2.00
2018-02-27T22:19:00.717Z,1.93
2018-02-27T22:21:26.935Z,1.80
2018-02-27T22:23:53.136Z,2.37
2018-02-27T22:26:19.297Z,2.40
2018-02-27T22:28:45.493Z,2.00
2018-02-27T22:31:11.641Z,2.30
2018-02-27T22:33:37.831Z,2.53
2018-02-27T22:36:04.246Z,2.57
2018-02-27T22:38:30.470Z,1.93
2018-02-27T22:40:56.637Z,2.07
2018-02-27T22:43:22.852Z,2.20
2018-02-27T22:45:49.020Z,2.30
2018-02-27T22:48:21.255Z,2.47
2018-02-27T22:50:47.428Z,2.30
2018-02-27T22:53:13.642Z,2.30
2018-02-27T22:55:39.799Z,1.90
2018-02-27T22:58:05.958Z,1.60
2018-02-27T23:00:36.261Z,1.90
2018-02-27T23:03:02.410Z,2.63
2018-02-27T23:05:28.608Z,2.03
2018-02-27T23:07:55.019Z,1.80
2018-02-27T23:10:21.194Z,1.90
2018-02-27T23:12:47.393Z,1.83
2018-02-27T23:15:13.561Z,2.10
2018-02-27T23:17:39.757Z,2.00
2018-02-27T23:20:06.283Z,2.17
2018-02-27T23:22:32.719Z,1.97
2018-02-27T23:27:59.479Z,2.27
2018-02-27T23:30:26.237Z,2.50
2018-02-27T23:32:53.479Z,1.80
2018-02-27T23:35:24.264Z,1.70
2018-02-27T23:37:50.665Z,2.10
2018-02-27T23:40:16.847Z,2.27
2018-02-27T23:42:43.027Z,2.10
2018-02-27T23:45:09.190Z,1.73
2018-02-27T23:47:35.401Z,2.40
2018-02-27T23:50:01.572Z,2.30
2018-02-27T23:52:27.724Z,1.70
2018-02-27T23:54:54.292Z,1.73
2018-02-27T23:57:20.459Z,2.40
2018-02-27T23:59:46.669Z,1.83
